createdAt,value
2019-06-27T00:01:46.058Z,19.43
2019-06-27T00:04:13.387Z,20.23
2019-06-27T00:06:40.990Z,20.63
2019-06-27T00:09:10.383Z,20.20
2019-06-27T00:11:37.706Z,19.97
2019-06-27T00:14:05.055Z,20.93
2019-06-27T00:16:32.301Z,19.70
2019-06-27T00:18:59.538Z,19.47
2019-06-27T00:21:26.843Z,19.50
2019-06-27T00:23:54.069Z,20.93
2019-06-27T00:26:21.321Z,19.87
2019-06-27T00:28:49.014Z,19.83
2019-06-27T00:31:16.322Z,20.73
2019-06-27T00:33:43.586Z,20.67
2019-06-27T00:36:10.944Z,20.30
2019-06-27T00:38:38.170Z,20.27
2019-06-27T00:41:05.419Z,20.23
2019-06-27T00:43:32.646Z,20.90
2019-06-27T00:46:00.122Z,20.33
2019-06-27T00:48:27.350Z,20.77
2019-06-27T00:50:55.129Z,21.70
2019-06-27T00:53:22.631Z,21.57
2019-06-27T00:55:49.954Z,22.00
2019-06-27T00:58:17.221Z,21.77
2019-06-27T01:00:44.505Z,22.30
2019-06-27T01:03:11.811Z,21.93
2019-06-27T01:05:39.069Z,22.17
2019-06-27T01:08:06.289Z,21.60
2019-06-27T01:10:33.601Z,21.50
2019-06-27T01:13:00.859Z,22.17
2019-06-27T01:15:28.444Z,21.90
2019-06-27T01:17:55.794Z,21.53
2019-06-27T01:20:23.093Z,22.57
2019-06-27T01:22:50.337Z,21.67
2019-06-27T01:25:17.670Z,23.07
2019-06-27T01:27:45.003Z,22.53
2019-06-27T01:30:12.735Z,21.63
2019-06-27T01:32:40.328Z,21.93
2019-06-27T01:35:08.687Z,21.10
2019-06-27T01:37:36.278Z,20.97
2019-06-27T01:40:04.409Z,20.23
2019-06-27T01:42:31.665Z,20.13
2019-06-27T01:45:21.207Z,20.40
2019-06-27T01:47:48.642Z,19.47
2019-06-27T01:50:16.022Z,20.53
2019-06-27T01:52:43.258Z,21.47
2019-06-27T01:55:10.591Z,20.90
2019-06-27T01:57:46.514Z,20.50
2019-06-27T02:00:07.880Z,21.03
2019-06-27T02:02:35.403Z,21.13
2019-06-27T02:05:02.686Z,21.07
2019-06-27T02:07:30.175Z,20.83
2019-06-27T02:09:57.501Z,20.80
2019-06-27T02:12:24.746Z,21.30
2019-06-27T02:14:54.436Z,21.40
2019-06-27T02:17:21.783Z,21.27
2019-06-27T02:19:57.858Z,20.80
2019-06-27T02:22:26.750Z,19.67
2019-06-27T02:24:55.134Z,21.13
2019-06-27T02:27:22.487Z,21.77
2019-06-27T02:29:49.823Z,21.80
2019-06-27T02:32:17.181Z,21.27
2019-06-27T02:34:44.824Z,22.33
2019-06-27T02:37:12.170Z,22.10
2019-06-27T02:39:39.493Z,22.40
2019-06-27T02:42:06.897Z,22.70
2019-06-27T02:44:34.226Z,22.60
2019-06-27T02:47:01.462Z,22.13
2019-06-27T02:49:28.702Z,21.70
2019-06-27T02:51:56.023Z,21.97
2019-06-27T02:54:23.260Z,20.93
2019-06-27T02:56:50.611Z,21.03
2019-06-27T02:59:19.463Z,21.80
2019-06-27T03:01:46.780Z,22.60
2019-06-27T03:04:19.168Z,21.97
2019-06-27T03:06:49.440Z,22.53
2019-06-27T03:09:16.882Z,22.77
2019-06-27T03:11:47.147Z,22.67
2019-06-27T03:14:16.367Z,22.77
2019-06-27T03:16:43.698Z,22.70
2019-06-27T03:19:11.042Z,24.00
2019-06-27T03:21:38.723Z,23.67
2019-06-27T03:24:06.467Z,22.77
2019-06-27T03:26:37.475Z,23.00
2019-06-27T03:29:05.063Z,24.00
2019-06-27T03:31:32.291Z,24.03
2019-06-27T03:33:59.546Z,23.97
2019-06-27T03:36:26.888Z,23.13
2019-06-27T03:38:54.190Z,24.17
2019-06-27T03:41:21.420Z,23.03
2019-06-27T03:43:48.670Z,23.30
2019-06-27T03:46:15.917Z,24.27
2019-06-27T03:48:43.472Z,23.87
2019-06-27T03:51:10.804Z,24.67
2019-06-27T03:53:38.490Z,23.47
2019-06-27T03:56:05.729Z,23.10
2019-06-27T03:58:33.304Z,22.30
2019-06-27T04:01:00.658Z,22.73
2019-06-27T04:03:27.999Z,21.63
2019-06-27T04:05:55.577Z,23.07
2019-06-27T04:08:22.913Z,21.10
2019-06-27T04:10:50.151Z,22.17
2019-06-27T04:13:17.529Z,20.83
2019-06-27T04:15:44.936Z,22.27
2019-06-27T04:18:12.275Z,21.00
2019-06-27T04:20:39.903Z,19.63
2019-06-27T04:23:07.556Z,19.90
2019-06-27T04:25:35.130Z,21.13
2019-06-27T04:28:02.399Z,19.83
2019-06-27T04:30:29.759Z,18.83
2019-06-27T04:32:57.004Z,19.57
2019-06-27T04:35:24.378Z,19.43
2019-06-27T04:37:51.631Z,19.30
2019-06-27T04:40:19.003Z,19.10
2019-06-27T04:42:46.247Z,19.37
2019-06-27T04:45:14.179Z,18.73
2019-06-27T04:47:41.431Z,20.00
2019-06-27T04:50:08.890Z,19.60
2019-06-27T04:52:36.237Z,18.83
2019-06-27T04:55:06.072Z,18.73
2019-06-27T04:57:33.419Z,18.80
2019-06-27T05:00:00.715Z,17.57
2019-06-27T05:02:30.791Z,17.80
2019-06-27T05:04:58.055Z,18.47
2019-06-27T05:07:25.671Z,17.37
2019-06-27T05:09:53.008Z,17.13
2019-06-27T05:12:20.334Z,18.23
2019-06-27T05:14:47.594Z,18.37
2019-06-27T05:17:14.831Z,17.53
2019-06-27T05:19:42.447Z,16.80
2019-06-27T05:22:09.797Z,17.20
2019-06-27T05:24:37.154Z,17.30
2019-06-27T05:27:04.839Z,17.07
2019-06-27T05:29:32.079Z,16.70
2019-06-27T05:31:59.322Z,16.00
2019-06-27T05:34:26.989Z,16.07
2019-06-27T05:36:54.554Z,15.50
2019-06-27T05:39:22.425Z,16.30
2019-06-27T05:41:50.686Z,16.10
2019-06-27T05:44:18.106Z,15.33
2019-06-27T05:46:45.440Z,15.50
2019-06-27T05:49:12.774Z,15.80
2019-06-27T05:51:40.403Z,15.83
2019-06-27T05:54:08.386Z,15.17
2019-06-27T05:56:35.785Z,15.93
2019-06-27T05:59:03.392Z,16.50
2019-06-27T06:01:30.749Z,15.07
2019-06-27T06:03:58.417Z,14.63
2019-06-27T06:06:25.749Z,15.87
2019-06-27T06:08:53.320Z,15.30
2019-06-27T06:11:20.605Z,14.20
2019-06-27T06:13:47.929Z,13.97
2019-06-27T06:16:15.251Z,14.00
2019-06-27T06:18:42.854Z,13.27
2019-06-27T06:21:10.497Z,14.17
2019-06-27T06:23:37.820Z,14.70
2019-06-27T06:26:05.283Z,13.40
2019-06-27T06:28:33.173Z,13.70
2019-06-27T06:31:01.274Z,13.33
2019-06-27T06:33:29.990Z,13.10
2019-06-27T06:35:57.665Z,13.83
2019-06-27T06:38:25.153Z,13.43
2019-06-27T06:40:52.402Z,13.50
2019-06-27T06:43:20.117Z,13.53
2019-06-27T06:45:47.649Z,13.60
2019-06-27T06:48:15.186Z,12.47
2019-06-27T06:50:42.747Z,12.77
2019-06-27T06:53:09.989Z,13.10
2019-06-27T06:55:37.237Z,13.43
2019-06-27T06:58:04.553Z,12.70
2019-06-27T07:00:31.783Z,13.40
2019-06-27T07:02:59.162Z,13.43
2019-06-27T07:05:26.636Z,12.73
2019-06-27T07:07:54.239Z,13.40
2019-06-27T07:10:21.754Z,13.17
2019-06-27T07:12:48.997Z,12.23
2019-06-27T07:15:16.332Z,13.80
2019-06-27T07:17:43.954Z,12.97
2019-06-27T07:20:12.096Z,12.10
2019-06-27T07:22:39.505Z,12.40
2019-06-27T07:25:06.925Z,12.87
2019-06-27T07:27:34.497Z,11.67
2019-06-27T07:30:01.745Z,11.03
2019-06-27T07:32:29.179Z,10.83
2019-06-27T07:34:57.098Z,10.73
2019-06-27T07:37:24.337Z,8.60
2019-06-27T07:39:52.977Z,8.97
2019-06-27T07:42:20.484Z,9.57
2019-06-27T07:44:49.033Z,8.80
2019-06-27T07:47:16.517Z,8.27
2019-06-27T07:49:44.473Z,8.00
2019-06-27T07:52:12.121Z,9.90
2019-06-27T07:54:40.530Z,8.40
2019-06-27T07:57:07.901Z,7.93
2019-06-27T07:59:36.098Z,7.80
2019-06-27T08:02:03.999Z,7.50
2019-06-27T08:04:31.734Z,7.40
2019-06-27T08:06:59.345Z,7.17
2019-06-27T08:09:26.622Z,8.43
2019-06-27T08:11:53.848Z,6.97
2019-06-27T08:14:21.407Z,7.20
2019-06-27T08:16:48.746Z,6.93
2019-06-27T08:19:16.274Z,6.30
2019-06-27T08:21:43.591Z,6.80
2019-06-27T08:24:10.996Z,6.57
2019-06-27T08:26:38.310Z,7.07
2019-06-27T08:29:06.038Z,5.97
2019-06-27T08:31:33.603Z,6.23
2019-06-27T08:34:00.970Z,6.77
2019-06-27T08:36:28.605Z,6.33
2019-06-27T08:38:56.277Z,6.60
2019-06-27T08:41:23.609Z,5.97
2019-06-27T08:43:50.914Z,5.93
2019-06-27T08:46:18.397Z,5.80
2019-06-27T08:48:45.898Z,5.80
2019-06-27T08:51:13.258Z,5.97
2019-06-27T08:53:40.585Z,5.80
2019-06-27T08:56:07.994Z,5.50
2019-06-27T08:58:35.653Z,5.93
2019-06-27T09:01:02.959Z,5.77
2019-06-27T09:03:30.658Z,5.13
2019-06-27T09:05:57.904Z,5.53
2019-06-27T09:08:25.484Z,5.60
2019-06-27T09:10:52.715Z,4.97
2019-06-27T09:13:20.258Z,5.30
2019-06-27T09:15:47.487Z,5.60
2019-06-27T09:18:15.353Z,5.83
2019-06-27T09:20:42.637Z,5.53
2019-06-27T09:23:10.031Z,5.37
2019-06-27T09:25:37.260Z,5.20
2019-06-27T09:28:04.582Z,5.33
2019-06-27T09:30:31.921Z,5.03
2019-06-27T09:32:59.188Z,4.93
2019-06-27T09:35:26.555Z,4.93
2019-06-27T09:37:54.110Z,4.73
2019-06-27T09:40:21.444Z,5.07
2019-06-27T09:42:48.778Z,5.20
2019-06-27T09:45:16.810Z,5.50
2019-06-27T09:47:44.064Z,5.33
2019-06-27T09:50:11.920Z,5.57
2019-06-27T09:52:39.841Z,5.73
2019-06-27T09:55:07.671Z,5.10
2019-06-27T09:57:34.935Z,5.00
2019-06-27T10:00:02.361Z,5.50
2019-06-27T10:02:41.028Z,4.77
2019-06-27T10:04:59.537Z,5.00
2019-06-27T10:07:26.939Z,4.53
2019-06-27T10:09:54.529Z,5.00
2019-06-27T10:12:22.085Z,4.77
2019-06-27T10:14:49.349Z,4.97
2019-06-27T10:17:16.575Z,4.93
2019-06-27T10:19:43.818Z,4.27
2019-06-27T10:22:11.508Z,4.47
2019-06-27T10:24:38.739Z,4.53
2019-06-27T10:27:06.313Z,4.57
2019-06-27T10:29:33.586Z,4.63
2019-06-27T10:32:01.253Z,4.87
2019-06-27T10:34:28.915Z,4.70
2019-06-27T10:36:56.577Z,4.17
2019-06-27T10:39:24.637Z,4.57
2019-06-27T10:41:52.196Z,4.70
2019-06-27T10:44:19.650Z,4.40
2019-06-27T10:46:47.212Z,4.40
2019-06-27T10:49:14.780Z,4.37
2019-06-27T10:51:42.549Z,4.28
2019-06-27T10:54:09.899Z,3.87
2019-06-27T10:56:39.871Z,3.75
2019-06-27T10:59:07.086Z,3.73
2019-06-27T11:01:34.841Z,3.90
2019-06-27T11:04:02.187Z,4.17
2019-06-27T11:06:29.521Z,3.92
2019-06-27T11:08:57.257Z,3.12
2019-06-27T11:11:24.980Z,3.17
2019-06-27T11:13:58.688Z,3.40
2019-06-27T11:16:22.102Z,3.05
2019-06-27T11:19:08.854Z,2.80
2019-06-27T11:21:37.009Z,2.92
2019-06-27T11:24:04.415Z,2.90
2019-06-27T11:26:32.312Z,2.65
2019-06-27T11:28:59.941Z,2.70
2019-06-27T11:31:27.565Z,2.15
2019-06-27T11:33:54.966Z,2.47
2019-06-27T11:36:22.585Z,2.60
2019-06-27T11:38:49.929Z,2.50
2019-06-27T11:41:17.474Z,2.40
2019-06-27T11:43:45.169Z,2.15
2019-06-27T11:46:13.318Z,2.67
2019-06-27T11:48:40.966Z,2.67
2019-06-27T11:51:08.367Z,2.40
2019-06-27T11:53:36.114Z,2.65
2019-06-27T11:56:03.453Z,2.20
2019-06-27T11:58:30.941Z,2.33
2019-06-27T12:00:58.195Z,2.00
2019-06-27T12:03:25.590Z,2.15
2019-06-27T12:05:53.694Z,2.17
2019-06-27T12:08:21.986Z,1.90
2019-06-27T12:10:50.804Z,1.80
2019-06-27T12:13:18.796Z,2.00
2019-06-27T12:15:46.610Z,1.90
2019-06-27T12:18:13.984Z,1.60
2019-06-27T12:20:41.703Z,2.27
2019-06-27T12:23:09.406Z,2.12
2019-06-27T12:25:36.769Z,1.75
2019-06-27T12:28:04.948Z,1.50
2019-06-27T12:30:33.829Z,1.67
2019-06-27T12:33:02.216Z,1.60
2019-06-27T12:35:29.936Z,1.57
2019-06-27T12:37:57.165Z,2.08
2019-06-27T12:40:25.235Z,1.85
2019-06-27T12:42:52.894Z,1.77
2019-06-27T12:45:20.551Z,1.52
2019-06-27T12:47:47.784Z,1.92
2019-06-27T12:50:15.571Z,1.80
2019-06-27T12:52:43.547Z,1.72
2019-06-27T12:55:11.306Z,2.08
2019-06-27T12:57:38.986Z,2.05
2019-06-27T13:00:08.890Z,2.15
2019-06-27T13:02:36.026Z,2.05
2019-06-27T13:05:03.893Z,2.05
2019-06-27T13:07:34.141Z,2.27
2019-06-27T13:10:01.873Z,1.92
2019-06-27T13:12:29.694Z,2.10
2019-06-27T13:14:57.722Z,2.33
2019-06-27T13:17:27.147Z,2.20
2019-06-27T13:19:55.025Z,2.43
2019-06-27T13:22:28.773Z,2.63
2019-06-27T13:24:56.837Z,2.63
2019-06-27T13:27:24.145Z,2.60
2019-06-27T13:29:52.598Z,2.70
2019-06-27T13:32:20.238Z,2.50
2019-06-27T13:34:47.621Z,2.60
2019-06-27T13:37:15.280Z,2.67
2019-06-27T13:39:43.939Z,2.67
2019-06-27T13:42:12.024Z,2.80
2019-06-27T13:44:40.171Z,2.80
2019-06-27T13:47:07.500Z,2.77
2019-06-27T13:49:34.825Z,2.87
2019-06-27T13:52:02.052Z,2.67
2019-06-27T13:54:29.305Z,2.90
2019-06-27T13:56:56.606Z,3.00
2019-06-27T13:59:24.354Z,3.20
2019-06-27T14:01:52.166Z,3.00
2019-06-27T14:04:19.432Z,2.90
2019-06-27T14:06:47.243Z,3.20
2019-06-27T14:09:22.928Z,3.07
2019-06-27T14:11:44.086Z,3.00
2019-06-27T14:14:11.699Z,3.30
2019-06-27T14:16:38.985Z,3.40
2019-06-27T14:19:06.588Z,2.97
2019-06-27T14:21:34.468Z,3.07
2019-06-27T14:24:01.747Z,3.20
2019-06-27T14:26:29.114Z,3.23
2019-06-27T14:28:57.389Z,3.50
2019-06-27T14:31:25.777Z,3.20
2019-06-27T14:33:53.659Z,3.30
2019-06-27T14:36:21.026Z,2.70
2019-06-27T14:38:48.323Z,2.90
2019-06-27T14:41:16.016Z,2.83
2019-06-27T14:43:43.297Z,3.47
2019-06-27T14:46:10.664Z,3.30
2019-06-27T14:48:38.002Z,2.90
2019-06-27T14:51:05.371Z,3.40
2019-06-27T14:53:32.981Z,2.97
2019-06-27T14:56:00.345Z,3.00
2019-06-27T14:58:27.673Z,3.20
2019-06-27T15:00:55.604Z,3.33
2019-06-27T15:03:22.974Z,3.33
2019-06-27T15:05:50.695Z,3.47
2019-06-27T15:08:18.053Z,2.80
2019-06-27T15:10:45.806Z,3.33
2019-06-27T15:13:13.042Z,3.07
2019-06-27T15:15:40.613Z,2.83
2019-06-27T15:18:08.749Z,3.50
2019-06-27T15:20:36.751Z,3.10
2019-06-27T15:23:04.364Z,2.97
2019-06-27T15:25:31.747Z,3.30
2019-06-27T15:27:59.181Z,2.87
2019-06-27T15:30:28.167Z,3.50
2019-06-27T15:32:55.932Z,3.20
2019-06-27T15:35:23.242Z,3.27
2019-06-27T15:37:50.480Z,2.90
2019-06-27T15:40:17.798Z,3.03
2019-06-27T15:42:45.415Z,3.00
2019-06-27T15:45:13.022Z,2.70
2019-06-27T15:47:42.082Z,2.80
2019-06-27T15:50:09.831Z,2.63
2019-06-27T15:52:37.499Z,2.80
2019-06-27T15:55:04.853Z,2.50
2019-06-27T15:57:32.611Z,2.47
2019-06-27T16:00:00.092Z,2.43
2019-06-27T16:02:27.450Z,2.40
2019-06-27T16:04:54.838Z,2.90
2019-06-27T16:07:22.182Z,2.30
2019-06-27T16:09:49.418Z,2.60
2019-06-27T16:12:16.814Z,1.90
2019-06-27T16:14:45.431Z,1.70
2019-06-27T16:17:13.257Z,1.60
2019-06-27T16:19:41.021Z,1.83
2019-06-27T16:22:09.350Z,2.07
2019-06-27T16:24:40.020Z,1.80
2019-06-27T16:27:07.445Z,2.30
2019-06-27T16:29:34.711Z,1.90
2019-06-27T16:32:02.334Z,1.87
2019-06-27T16:34:29.569Z,1.60
2019-06-27T16:36:56.798Z,1.50
2019-06-27T16:39:24.515Z,1.77
2019-06-27T16:41:52.293Z,1.63
2019-06-27T16:44:19.938Z,1.30
2019-06-27T16:46:47.399Z,1.50
2019-06-27T16:49:14.624Z,1.27
2019-06-27T16:51:42.025Z,1.50
2019-06-27T16:54:09.248Z,1.40
2019-06-27T16:56:36.494Z,1.50
2019-06-27T16:59:04.073Z,1.30
2019-06-27T17:01:31.334Z,1.50
2019-06-27T17:03:58.554Z,1.30
2019-06-27T17:06:40.806Z,1.33
2019-06-27T17:08:56.667Z,1.20
2019-06-27T17:11:23.913Z,1.20
2019-06-27T17:13:51.142Z,1.50
2019-06-27T17:16:21.330Z,1.43
2019-06-27T17:18:47.582Z,1.47
2019-06-27T17:21:15.493Z,1.40
2019-06-27T17:23:42.716Z,1.10
2019-06-27T17:26:11.702Z,1.40
2019-06-27T17:28:39.471Z,1.30
2019-06-27T17:31:06.738Z,1.53
2019-06-27T17:33:34.381Z,1.30
2019-06-27T17:36:01.950Z,1.40
2019-06-27T17:38:32.782Z,1.40
2019-06-27T17:41:00.077Z,1.50
2019-06-27T17:43:27.320Z,1.23
2019-06-27T17:45:55.127Z,1.37
2019-06-27T17:48:22.933Z,1.20
2019-06-27T17:50:51.220Z,1.30
2019-06-27T17:53:19.231Z,1.47
2019-06-27T17:55:46.917Z,1.43
2019-06-27T17:58:15.695Z,1.70
2019-06-27T18:00:43.521Z,1.37
2019-06-27T18:03:11.919Z,1.63
2019-06-27T18:05:39.193Z,1.60
2019-06-27T18:08:06.537Z,1.83
2019-06-27T18:10:33.881Z,1.83
2019-06-27T18:13:07.547Z,1.60
2019-06-27T18:15:35.113Z,1.77
2019-06-27T18:18:03.778Z,1.80
2019-06-27T18:20:32.013Z,1.60
2019-06-27T18:22:59.919Z,2.13
2019-06-27T18:25:27.941Z,2.10
2019-06-27T18:27:57.671Z,1.80
2019-06-27T18:30:25.476Z,2.10
2019-06-27T18:32:53.050Z,1.80
2019-06-27T18:35:20.382Z,2.20
2019-06-27T18:37:48.303Z,2.20
2019-06-27T18:40:16.722Z,2.17
2019-06-27T18:42:44.066Z,2.70
2019-06-27T18:45:11.614Z,2.13
2019-06-27T18:47:39.325Z,2.17
2019-06-27T18:50:09.841Z,2.43
2019-06-27T18:52:37.278Z,2.20
2019-06-27T18:55:06.101Z,1.97
2019-06-27T18:57:33.663Z,2.47
2019-06-27T19:00:01.256Z,2.23
2019-06-27T19:02:28.834Z,2.50
2019-06-27T19:04:56.063Z,2.50
2019-06-27T19:07:23.478Z,2.13
2019-06-27T19:09:51.058Z,2.67
2019-06-27T19:12:19.283Z,2.80
2019-06-27T19:14:47.572Z,2.07
2019-06-27T19:17:16.258Z,2.27
2019-06-27T19:19:47.286Z,2.20
2019-06-27T19:22:34.474Z,2.10
2019-06-27T19:25:17.328Z,2.20
2019-06-27T19:27:44.730Z,2.23
2019-06-27T19:30:12.082Z,2.20
2019-06-27T19:32:39.413Z,1.80
2019-06-27T19:35:06.774Z,1.80
2019-06-27T19:37:34.021Z,1.87
2019-06-27T19:40:01.600Z,2.03
2019-06-27T19:42:29.267Z,1.90
2019-06-27T19:44:56.594Z,1.83
2019-06-27T19:47:23.853Z,1.87
2019-06-27T19:49:51.092Z,2.00
2019-06-27T19:52:18.574Z,2.20
2019-06-27T19:54:45.810Z,2.07
2019-06-27T19:57:13.401Z,2.00
2019-06-27T19:59:40.653Z,2.10
2019-06-27T20:02:08.324Z,2.23
2019-06-27T20:04:36.063Z,2.30
2019-06-27T20:07:03.425Z,1.60
2019-06-27T20:09:30.983Z,2.00
2019-06-27T20:11:58.310Z,2.00
2019-06-27T20:14:25.893Z,1.93
2019-06-27T20:16:53.543Z,1.73
2019-06-27T20:19:20.805Z,1.70
2019-06-27T20:21:48.134Z,2.13
2019-06-27T20:24:15.558Z,1.87
2019-06-27T20:26:43.189Z,1.70
2019-06-27T20:29:10.730Z,1.80
2019-06-27T20:31:37.957Z,1.77
2019-06-27T20:34:05.848Z,1.60
2019-06-27T20:36:33.074Z,2.07
2019-06-27T20:39:00.660Z,1.80
2019-06-27T20:41:29.445Z,1.80
2019-06-27T20:43:57.329Z,2.00
2019-06-27T20:46:24.654Z,1.77
2019-06-27T20:48:54.018Z,1.67
2019-06-27T20:51:21.481Z,1.70
2019-06-27T20:53:48.914Z,1.50
2019-06-27T20:56:17.041Z,1.90
2019-06-27T20:58:44.918Z,1.60
2019-06-27T21:01:12.151Z,1.60
2019-06-27T21:03:39.379Z,1.80
2019-06-27T21:06:06.602Z,1.60
2019-06-27T21:08:50.020Z,1.37
2019-06-27T21:11:03.257Z,1.60
2019-06-27T21:13:30.585Z,1.90
2019-06-27T21:15:57.808Z,1.97
2019-06-27T21:18:25.394Z,1.40
2019-06-27T21:20:52.670Z,1.40
2019-06-27T21:23:20.063Z,1.83
2019-06-27T21:25:47.415Z,1.33
2019-06-27T21:28:14.725Z,1.57
2019-06-27T21:30:42.784Z,1.50
2019-06-27T21:33:10.106Z,1.60
2019-06-27T21:35:37.737Z,1.33
2019-06-27T21:38:05.125Z,1.70
2019-06-27T21:40:32.810Z,1.70
2019-06-27T21:43:00.631Z,1.90
2019-06-27T21:45:27.854Z,1.70
2019-06-27T21:47:55.149Z,1.53
2019-06-27T21:50:22.762Z,1.43
2019-06-27T21:52:50.611Z,1.67
2019-06-27T21:55:17.921Z,1.50
2019-06-27T21:57:45.421Z,1.40
2019-06-27T22:00:13.084Z,1.30
2019-06-27T22:02:40.411Z,1.50
2019-06-27T22:05:07.998Z,1.70
2019-06-27T22:07:35.312Z,1.63
2019-06-27T22:10:02.685Z,1.53
2019-06-27T22:12:34.151Z,1.67
2019-06-27T22:15:00.114Z,1.80
2019-06-27T22:17:27.846Z,1.87
2019-06-27T22:19:55.202Z,1.47
2019-06-27T22:22:22.431Z,1.80
2019-06-27T22:24:50.002Z,1.63
2019-06-27T22:27:17.687Z,1.67
2019-06-27T22:29:44.940Z,1.40
2019-06-27T22:32:12.165Z,1.50
2019-06-27T22:34:39.741Z,1.70
2019-06-27T22:37:07.460Z,1.47
2019-06-27T22:39:53.050Z,1.87
2019-06-27T22:42:38.190Z,1.77
2019-06-27T22:45:24.759Z,1.63
2019-06-27T22:48:10.947Z,1.60
2019-06-27T22:50:52.753Z,1.70
2019-06-27T22:53:21.487Z,1.70
2019-06-27T22:55:48.947Z,1.90
2019-06-27T22:58:16.539Z,1.77
2019-06-27T23:00:43.961Z,2.00
2019-06-27T23:03:12.594Z,1.80
2019-06-27T23:05:39.898Z,1.80
2019-06-27T23:08:07.118Z,2.20
2019-06-27T23:10:34.353Z,2.00
2019-06-27T23:13:01.613Z,1.87
2019-06-27T23:15:29.575Z,1.77
2019-06-27T23:17:57.219Z,2.30
2019-06-27T23:20:24.778Z,1.70
2019-06-27T23:22:52.641Z,1.73
2019-06-27T23:25:20.202Z,1.70
2019-06-27T23:27:47.451Z,1.97
2019-06-27T23:30:15.265Z,1.93
2019-06-27T23:32:42.565Z,1.97
2019-06-27T23:35:10.439Z,1.57
2019-06-27T23:37:38.101Z,1.53
2019-06-27T23:40:14.009Z,1.77
2019-06-27T23:42:35.177Z,1.70
2019-06-27T23:45:02.421Z,1.80
2019-06-27T23:47:30.098Z,2.00
2019-06-27T23:49:57.328Z,1.90
2019-06-27T23:52:24.656Z,1.83
2019-06-27T23:54:52.341Z,1.90
2019-06-27T23:57:19.582Z,2.13
2019-06-27T23:59:47.156Z,2.00
